Jachal, Argentina
Current Conditions -  °F | °C
As of 12:00 AM on Thursday 23 Oct 2014 (Local Time) from SCSE Reporting Station
Overcast Overcast  
Wind Chill: 13°   Ceiling: 800
Heat Index: 13°   Visibility: 6mi
Dew Point: 12°   Wind: 0mph
Humidity: 94%   Direction: NA
Pressure: 29.97"   Gusts: NA
Location:  30.25°S, 68.75°W
Report Text: SCSE 230300Z 00000KT 9999 OVC008 13/12 Q1015
Loading
Personal Weather Stations






























Interactive Weather Map
Tropical Storm Tracking
New forecast layout! Learn more

10-Day Weather Forecast

Advertisements
Track Severe Weather on mobile